Time;durP1;ratioP1;P1;durP2;ratioP2;P2;SDS_P1;SDS_P2;PMS_P1;PMS_P2;Temp;Humidity;BMP_temperature;BMP_pressure;BME280_temperature;BME280_humidity;BME280_pressure;Samples;Min_cycle;Max_cycle;Signal;HPM_P1;HPM_P2
2023/03/01 00:01:16;;;;;;;22.55;17.15;;;;;;;;;;10028896;28;20053;-68
2023/03/01 00:06:09;;;;;;;21.27;17.23;;;;;;;;;;10020455;28;20046;-68
2023/03/01 00:11:21;;;;;;;24.20;17.27;;;;;;;;;;10016839;28;20104;-68
2023/03/01 00:16:20;;;;;;;27.48;18.15;;;;;;;;;;10012815;28;20057;-68
2023/03/01 00:21:14;;;;;;;20.53;17.77;;;;;;;;;;10029192;28;20061;-68
2023/03/01 00:26:10;;;;;;;25.65;18.13;;;;;;;;;;10030265;28;20300;-68
2023/03/01 00:31:09;;;;;;;22.13;17.30;;;;;;;;;;10028131;28;20050;-68
2023/03/01 00:36:04;;;;;;;25.92;18.80;;;;;;;;;;10026928;28;20042;-68
2023/03/01 00:41:06;;;;;;;23.38;18.10;;;;;;;;;;10026188;28;20049;-68
2023/03/01 00:46:01;;;;;;;20.83;18.45;;;;;;;;;;9999417;28;20104;-68
2023/03/01 00:50:55;;;;;;;26.67;20.10;;;;;;;;;;10027821;28;20136;-68
2023/03/01 00:55:48;;;;;;;29.02;20.25;;;;;;;;;;10025962;28;20478;-68
2023/03/01 01:00:42;;;;;;;27.13;21.75;;;;;;;;;;10015806;28;20069;-68
2023/03/01 01:05:36;;;;;;;26.67;19.60;;;;;;;;;;10017301;28;20053;-68
2023/03/01 01:10:29;;;;;;;25.35;20.70;;;;;;;;;;10024802;28;20043;-68
2023/03/01 01:15:22;;;;;;;29.65;23.10;;;;;;;;;;10027296;28;20053;-68
2023/03/01 01:20:16;;;;;;;20.00;17.05;;;;;;;;;;10025554;28;20089;-68
2023/03/01 01:25:10;;;;;;;20.38;17.10;;;;;;;;;;10017088;28;20057;-68
2023/03/01 01:30:05;;;;;;;19.27;16.70;;;;;;;;;;10016632;28;20046;-68
2023/03/01 01:34:59;;;;;;;23.45;17.15;;;;;;;;;;10026210;28;20057;-68
2023/03/01 01:39:52;;;;;;;23.02;17.58;;;;;;;;;;10024857;28;20475;-68
2023/03/01 01:44:47;;;;;;;20.98;18.60;;;;;;;;;;10025775;28;20050;-68
2023/03/01 01:49:47;;;;;;;22.25;17.73;;;;;;;;;;10024674;28;20729;-68
2023/03/01 01:54:57;;;;;;;22.48;18.15;;;;;;;;;;10026077;28;20081;-68
2023/03/01 02:00:10;;;;;;;27.88;19.00;;;;;;;;;;9994003;28;20052;-68
2023/03/01 02:05:25;;;;;;;28.48;18.30;;;;;;;;;;10025792;28;20053;-68
2023/03/01 02:10:18;;;;;;;25.23;19.60;;;;;;;;;;10022708;28;20064;-68
2023/03/01 02:15:12;;;;;;;20.92;17.70;;;;;;;;;;10014962;28;20054;-68
2023/03/01 02:20:20;;;;;;;22.23;17.33;;;;;;;;;;10025820;28;20038;-68
2023/03/01 02:26:09;;;;;;;21.27;17.27;;;;;;;;;;10005602;28;20558;-68
2023/03/01 02:36:20;;;;;;;24.05;17.13;;;;;;;;;;10026539;28;20510;-68
2023/03/01 02:41:35;;;;;;;21.67;16.15;;;;;;;;;;10031604;28;20037;-68
2023/03/01 02:46:27;;;;;;;19.48;16.30;;;;;;;;;;10023608;28;20092;-69
2023/03/01 02:51:23;;;;;;;19.48;16.35;;;;;;;;;;10031216;28;20061;-68
2023/03/01 02:56:16;;;;;;;24.90;18.05;;;;;;;;;;10023163;28;20582;-69
2023/03/01 03:01:09;;;;;;;20.38;16.65;;;;;;;;;;10011012;28;20050;-69
2023/03/01 03:06:03;;;;;;;19.83;15.15;;;;;;;;;;10031544;28;20076;-69
2023/03/01 03:10:57;;;;;;;19.60;16.25;;;;;;;;;;10030863;28;20042;-68
2023/03/01 03:15:50;;;;;;;18.63;16.35;;;;;;;;;;10031021;28;20050;-68
2023/03/01 03:20:45;;;;;;;25.55;16.48;;;;;;;;;;10029291;28;20461;-68
2023/03/01 03:25:37;;;;;;;22.70;17.13;;;;;;;;;;10030720;28;20073;-69
2023/03/01 03:30:31;;;;;;;20.25;16.17;;;;;;;;;;10027568;28;20561;-68
2023/03/01 03:35:29;;;;;;;20.85;15.77;;;;;;;;;;10025968;28;20062;-68
2023/03/01 03:40:22;;;;;;;19.80;16.55;;;;;;;;;;10022723;28;20054;-68
2023/03/01 03:45:16;;;;;;;17.58;15.48;;;;;;;;;;10030660;28;20132;-69
2023/03/01 03:50:12;;;;;;;21.45;17.42;;;;;;;;;;10025639;28;20506;-68
2023/03/01 03:55:10;;;;;;;17.80;15.75;;;;;;;;;;10024505;28;20084;-68
2023/03/01 04:00:12;;;;;;;19.48;16.85;;;;;;;;;;10029932;28;20053;-68
2023/03/01 04:05:07;;;;;;;20.95;15.07;;;;;;;;;;10027036;28;20077;-68
2023/03/01 04:10:01;;;;;;;22.08;15.57;;;;;;;;;;10027870;28;20088;-68
2023/03/01 04:14:55;;;;;;;21.40;16.90;;;;;;;;;;10026081;28;20077;-68
2023/03/01 04:19:49;;;;;;;18.63;15.43;;;;;;;;;;10020574;28;20147;-69
2023/03/01 04:24:43;;;;;;;21.98;15.60;;;;;;;;;;10024628;28;20054;-68
2023/03/01 04:29:36;;;;;;;18.65;15.85;;;;;;;;;;10024510;28;20058;-68
2023/03/01 04:34:30;;;;;;;21.65;15.88;;;;;;;;;;10020348;28;20049;-68
2023/03/01 04:39:24;;;;;;;18.73;16.10;;;;;;;;;;10020676;28;20640;-69
2023/03/01 04:44:19;;;;;;;19.20;14.82;;;;;;;;;;10021875;28;20053;-68
2023/03/01 04:49:12;;;;;;;18.05;15.23;;;;;;;;;;10023877;28;20510;-68
2023/03/01 04:54:08;;;;;;;20.60;15.82;;;;;;;;;;10028648;28;20532;-68
2023/03/01 04:59:05;;;;;;;18.98;16.58;;;;;;;;;;10028167;28;20396;-68
2023/03/01 05:04:02;;;;;;;17.42;14.88;;;;;;;;;;10027716;28;20466;-68
2023/03/01 05:08:56;;;;;;;17.25;15.10;;;;;;;;;;10027286;28;20054;-68
2023/03/01 05:13:54;;;;;;;19.83;15.95;;;;;;;;;;10027755;28;20081;-69
2023/03/01 05:18:50;;;;;;;22.23;16.63;;;;;;;;;;10027075;28;20045;-68
2023/03/01 05:23:43;;;;;;;21.20;16.95;;;;;;;;;;10026591;28;20510;-68
2023/03/01 05:28:37;;;;;;;18.65;14.15;;;;;;;;;;10025681;28;20104;-68
2023/03/01 05:33:30;;;;;;;22.10;15.93;;;;;;;;;;10026764;28;20068;-68
2023/03/01 05:38:24;;;;;;;20.02;14.57;;;;;;;;;;10026469;28;20050;-71
2023/03/01 05:43:17;;;;;;;20.35;15.10;;;;;;;;;;10014043;28;20050;-70
2023/03/01 05:48:12;;;;;;;19.88;15.20;;;;;;;;;;10013574;28;20052;-70
2023/03/01 05:53:12;;;;;;;18.13;15.55;;;;;;;;;;10024790;28;20060;-70
2023/03/01 05:58:09;;;;;;;17.02;13.88;;;;;;;;;;10025017;28;20053;-69
2023/03/01 06:03:03;;;;;;;18.10;15.13;;;;;;;;;;10024607;28;20058;-68
2023/03/01 06:07:59;;;;;;;17.52;15.05;;;;;;;;;;10025186;28;20046;-69
2023/03/01 06:12:53;;;;;;;19.88;15.35;;;;;;;;;;10025487;28;20049;-66
2023/03/01 06:17:46;;;;;;;24.88;15.90;;;;;;;;;;10023825;28;20054;-67
2023/03/01 06:22:41;;;;;;;22.38;16.30;;;;;;;;;;10021724;28;20056;-66
2023/03/01 06:27:35;;;;;;;21.85;17.15;;;;;;;;;;10018450;28;20038;-65
2023/03/01 06:32:28;;;;;;;21.38;15.55;;;;;;;;;;10009404;28;20052;-69
2023/03/01 06:37:22;;;;;;;21.00;16.38;;;;;;;;;;10016368;28;20137;-66
2023/03/01 06:42:16;;;;;;;19.60;16.48;;;;;;;;;;10016892;28;20077;-67
2023/03/01 06:47:10;;;;;;;24.17;18.83;;;;;;;;;;10023073;28;20060;-68
2023/03/01 06:52:02;;;;;;;19.88;16.02;;;;;;;;;;10016256;28;20061;-69
2023/03/01 06:56:55;;;;;;;23.40;17.33;;;;;;;;;;10022681;28;20137;-69
2023/03/01 07:01:48;;;;;;;28.02;18.55;;;;;;;;;;10024644;28;20498;-71
2023/03/01 07:06:41;;;;;;;23.70;18.40;;;;;;;;;;9998181;28;20054;-70
2023/03/01 07:11:34;;;;;;;22.42;16.75;;;;;;;;;;9996906;28;20054;-71
2023/03/01 07:16:28;;;;;;;24.60;17.13;;;;;;;;;;10012360;28;20092;-71
2023/03/01 07:21:22;;;;;;;20.30;17.75;;;;;;;;;;10004694;28;20047;-71
2023/03/01 07:26:16;;;;;;;21.27;18.27;;;;;;;;;;10029381;28;20441;-70
2023/03/01 07:31:09;;;;;;;23.15;18.20;;;;;;;;;;10018545;28;20050;-70
2023/03/01 07:36:03;;;;;;;24.95;20.30;;;;;;;;;;10014742;28;20456;-70
2023/03/01 07:41:01;;;;;;;23.75;18.42;;;;;;;;;;10029757;28;20072;-70
2023/03/01 07:45:57;;;;;;;21.53;18.13;;;;;;;;;;10023494;28;20049;-68
2023/03/01 07:50:51;;;;;;;24.08;19.35;;;;;;;;;;10016531;28;20054;-70
2023/03/01 07:55:45;;;;;;;30.50;19.23;;;;;;;;;;10020102;28;20410;-69
2023/03/01 08:00:38;;;;;;;25.20;18.65;;;;;;;;;;10020153;28;20133;-71
2023/03/01 08:05:31;;;;;;;21.92;17.73;;;;;;;;;;10030032;28;20471;-70
2023/03/01 08:10:25;;;;;;;25.52;20.33;;;;;;;;;;10030188;28;20096;-69
2023/03/01 08:15:18;;;;;;;20.55;18.27;;;;;;;;;;10027090;28;20133;-68
2023/03/01 08:20:12;;;;;;;23.20;17.95;;;;;;;;;;10028822;28;20049;-68
2023/03/01 08:25:07;;;;;;;24.88;19.73;;;;;;;;;;10027187;28;20054;-68
2023/03/01 08:30:00;;;;;;;25.80;20.25;;;;;;;;;;10027607;28;20557;-68
2023/03/01 08:34:54;;;;;;;25.63;19.15;;;;;;;;;;10026373;28;20067;-68
2023/03/01 08:39:48;;;;;;;25.63;18.25;;;;;;;;;;10025242;28;20129;-69
2023/03/01 08:44:41;;;;;;;21.42;16.45;;;;;;;;;;10025047;28;20112;-70
2023/03/01 08:49:37;;;;;;;31.80;24.90;;;;;;;;;;10025679;28;20049;-70
2023/03/01 08:54:31;;;;;;;21.08;18.17;;;;;;;;;;10023036;28;20496;-69
2023/03/01 08:59:25;;;;;;;21.42;17.08;;;;;;;;;;10021740;28;20084;-69
2023/03/01 09:04:18;;;;;;;24.73;18.98;;;;;;;;;;10028874;28;20042;-69
2023/03/01 09:09:16;;;;;;;23.55;17.15;;;;;;;;;;10023503;28;20126;-69
2023/03/01 09:14:11;;;;;;;24.98;19.55;;;;;;;;;;10016118;28;20422;-70
2023/03/01 09:19:04;;;;;;;35.63;26.67;;;;;;;;;;10023327;28;20057;-70
2023/03/01 09:23:58;;;;;;;19.13;14.57;;;;;;;;;;10024485;28;20038;-69
2023/03/01 09:28:54;;;;;;;20.67;16.70;;;;;;;;;;10027894;28;20046;-69
2023/03/01 09:34:06;;;;;;;20.02;15.55;;;;;;;;;;10014054;28;20497;-69
2023/03/01 09:38:59;;;;;;;16.95;14.65;;;;;;;;;;10025778;28;20138;-70
2023/03/01 09:43:57;;;;;;;18.95;14.57;;;;;;;;;;10020217;28;20092;-69
2023/03/01 09:49:03;;;;;;;18.58;14.73;;;;;;;;;;10021543;28;20041;-70
2023/03/01 09:53:58;;;;;;;23.27;17.17;;;;;;;;;;10022063;28;20057;-69
2023/03/01 09:58:59;;;;;;;19.67;14.30;;;;;;;;;;10025890;28;20426;-69
2023/03/01 10:04:27;;;;;;;17.05;15.15;;;;;;;;;;10008685;28;20054;-69
2023/03/01 10:09:21;;;;;;;18.83;15.10;;;;;;;;;;10011821;28;20067;-69
2023/03/01 10:14:48;;;;;;;17.70;15.18;;;;;;;;;;10025322;28;20054;-69
2023/03/01 10:19:46;;;;;;;18.58;14.43;;;;;;;;;;10005248;28;20066;-69
2023/03/01 10:24:38;;;;;;;20.27;16.38;;;;;;;;;;10009253;28;20483;-69
2023/03/01 10:29:37;;;;;;;19.50;15.77;;;;;;;;;;10016368;28;20054;-69
2023/03/01 10:34:34;;;;;;;24.52;16.88;;;;;;;;;;10025144;28;20054;-69
2023/03/01 10:39:26;;;;;;;20.35;16.90;;;;;;;;;;10017426;28;20056;-69
2023/03/01 10:44:41;;;;;;;24.88;16.48;;;;;;;;;;10013977;28;20038;-69
2023/03/01 10:49:35;;;;;;;23.98;17.35;;;;;;;;;;10023874;28;20074;-69
2023/03/01 10:54:31;;;;;;;25.52;16.35;;;;;;;;;;10032069;28;20523;-69
2023/03/01 10:59:38;;;;;;;20.58;17.13;;;;;;;;;;10032594;28;20058;-69
2023/03/01 11:04:31;;;;;;;22.63;16.70;;;;;;;;;;10024623;28;20054;-69
2023/03/01 11:09:27;;;;;;;19.75;16.13;;;;;;;;;;10032597;28;20060;-69
2023/03/01 11:14:34;;;;;;;17.48;15.25;;;;;;;;;;10024876;28;20057;-69
2023/03/01 11:19:27;;;;;;;25.48;16.60;;;;;;;;;;10031075;28;20582;-69
2023/03/01 11:24:21;;;;;;;30.27;19.35;;;;;;;;;;10030110;28;20403;-69
2023/03/01 11:29:32;;;;;;;28.67;20.30;;;;;;;;;;10030624;28;20042;-69
2023/03/01 11:34:51;;;;;;;25.65;20.90;;;;;;;;;;10030282;28;20514;-70
2023/03/01 11:39:46;;;;;;;20.80;17.70;;;;;;;;;;10029860;28;20566;-69
2023/03/01 11:44:42;;;;;;;21.00;14.77;;;;;;;;;;10031107;28;20499;-69
2023/03/01 11:49:56;;;;;;;18.45;15.30;;;;;;;;;;10029960;28;20053;-70
2023/03/01 11:55:10;;;;;;;21.67;16.05;;;;;;;;;;10030832;28;20051;-70
2023/03/01 12:00:31;;;;;;;18.25;15.15;;;;;;;;;;10016951;28;20112;-70
2023/03/01 12:05:45;;;;;;;20.33;17.60;;;;;;;;;;10020428;28;20141;-70
2023/03/01 12:11:04;;;;;;;21.23;16.10;;;;;;;;;;10027974;28;20068;-70
2023/03/01 12:16:12;;;;;;;;;;;;;;;;;;10018400;28;20049;-70
2023/03/01 12:21:38;;;;;;;17.65;14.82;;;;;;;;;;10028985;28;19921;-70
2023/03/01 12:26:53;;;;;;;21.45;16.02;;;;;;;;;;10020000;28;20462;-70
2023/03/01 12:32:03;;;;;;;20.65;17.33;;;;;;;;;;10019617;28;20125;-72
2023/03/01 12:37:01;;;;;;;17.35;15.05;;;;;;;;;;10021475;28;20580;-69
2023/03/01 12:42:29;;;;;;;16.95;14.95;;;;;;;;;;10029098;28;20134;-69
2023/03/01 12:48:20;;;;;;;23.48;16.65;;;;;;;;;;10028155;28;20743;-70
2023/03/01 12:53:46;;;;;;;17.95;13.18;;;;;;;;;;9984784;28;20523;-70
2023/03/01 12:59:33;;;;;;;16.58;12.73;;;;;;;;;;10014309;28;20080;-69
2023/03/01 13:04:31;;;;;;;20.38;16.23;;;;;;;;;;10016298;28;20426;-69
2023/03/01 13:09:45;;;;;;;21.75;18.40;;;;;;;;;;10026933;28;20104;-69
2023/03/01 13:14:45;;;;;;;21.83;15.98;;;;;;;;;;10027929;28;20484;-69
2023/03/01 13:19:41;;;;;;;18.38;15.15;;;;;;;;;;10027418;28;20068;-69
2023/03/01 13:24:39;;;;;;;22.05;16.05;;;;;;;;;;10024549;28;20060;-69
2023/03/01 13:29:51;;;;;;;19.13;15.60;;;;;;;;;;10015305;28;20045;-69
2023/03/01 13:34:46;;;;;;;20.65;16.75;;;;;;;;;;10025916;28;20058;-70
2023/03/01 13:39:40;;;;;;;31.70;21.55;;;;;;;;;;10010662;28;20065;-69
2023/03/01 13:44:38;;;;;;;23.58;18.33;;;;;;;;;;10023384;28;20050;-69
2023/03/01 13:49:41;;;;;;;19.02;14.90;;;;;;;;;;10023150;28;20415;-69
2023/03/01 13:54:38;;;;;;;21.67;15.65;;;;;;;;;;10006887;28;20557;-68
2023/03/01 13:59:31;;;;;;;20.77;15.98;;;;;;;;;;10022121;28;20099;-69
2023/03/01 14:04:28;;;;;;;21.50;18.15;;;;;;;;;;10023542;28;20056;-68
2023/03/01 14:09:27;;;;;;;20.85;15.73;;;;;;;;;;10022940;28;20054;-69
2023/03/01 14:14:42;;;;;;;24.50;17.95;;;;;;;;;;10022997;28;20061;-69
2023/03/01 14:19:35;;;;;;;20.75;17.17;;;;;;;;;;10022046;28;20066;-69
2023/03/01 14:24:29;;;;;;;25.30;19.50;;;;;;;;;;10022875;28;20124;-69
2023/03/01 14:29:36;;;;;;;23.67;20.00;;;;;;;;;;10021960;28;20068;-68
2023/03/01 14:34:30;;;;;;;20.10;16.52;;;;;;;;;;10022656;28;20084;-68
2023/03/01 14:39:26;;;;;;;23.30;20.40;;;;;;;;;;10022441;28;20086;-68
2023/03/01 14:44:24;;;;;;;23.83;16.73;;;;;;;;;;10022616;28;20054;-68
2023/03/01 14:49:22;;;;;;;18.88;15.82;;;;;;;;;;10022258;28;20439;-68
2023/03/01 14:54:25;;;;;;;23.45;16.67;;;;;;;;;;10021418;28;20573;-68
2023/03/01 14:59:23;;;;;;;20.98;15.07;;;;;;;;;;10023712;28;20084;-68
2023/03/01 15:04:18;;;;;;;23.10;17.75;;;;;;;;;;10022262;28;20096;-68
2023/03/01 15:09:15;;;;;;;19.77;17.20;;;;;;;;;;10020331;28;20061;-68
2023/03/01 15:14:39;;;;;;;18.70;16.08;;;;;;;;;;10018869;28;20171;-68
2023/03/01 15:19:32;;;;;;;22.02;17.92;;;;;;;;;;10022697;28;20050;-68
2023/03/01 15:24:28;;;;;;;18.98;16.13;;;;;;;;;;10020837;28;20583;-68
2023/03/01 15:29:29;;;;;;;19.70;17.60;;;;;;;;;;10021770;28;20049;-69
2023/03/01 15:34:23;;;;;;;23.05;18.63;;;;;;;;;;10027524;28;20760;-69
2023/03/01 15:39:39;;;;;;;21.80;17.33;;;;;;;;;;10028570;28;20045;-68
2023/03/01 15:44:49;;;;;;;18.67;16.67;;;;;;;;;;10028217;28;20628;-69
2023/03/01 15:49:43;;;;;;;17.50;15.70;;;;;;;;;;10027863;28;20146;-69
2023/03/01 15:54:46;;;;;;;35.47;23.95;;;;;;;;;;10027144;28;20058;-69
2023/03/01 15:59:41;;;;;;;25.92;18.92;;;;;;;;;;10028162;28;20060;-69
2023/03/01 16:04:34;;;;;;;23.15;20.70;;;;;;;;;;10027019;28;20161;-69
2023/03/01 16:09:28;;;;;;;27.65;20.90;;;;;;;;;;10027228;28;20064;-68
2023/03/01 16:14:22;;;;;;;26.13;21.35;;;;;;;;;;10027436;28;20045;-68
2023/03/01 16:19:15;;;;;;;22.00;19.15;;;;;;;;;;10026720;28;20085;-69
2023/03/01 16:24:10;;;;;;;25.83;22.45;;;;;;;;;;10012862;28;20078;-67
2023/03/01 16:29:03;;;;;;;27.38;20.58;;;;;;;;;;10009457;28;20112;-69
2023/03/01 16:33:57;;;;;;;22.38;18.58;;;;;;;;;;10022450;28;20050;-68
2023/03/01 16:38:51;;;;;;;22.35;19.40;;;;;;;;;;10027092;28;20050;-69
2023/03/01 16:43:46;;;;;;;20.65;17.98;;;;;;;;;;10025003;28;20537;-69
2023/03/01 16:48:40;;;;;;;20.58;17.65;;;;;;;;;;10025295;28;20050;-69
2023/03/01 16:53:35;;;;;;;17.30;15.48;;;;;;;;;;10025143;28;20091;-68
2023/03/01 16:58:28;;;;;;;16.98;14.93;;;;;;;;;;10024955;28;20069;-68
2023/03/01 17:03:21;;;;;;;17.77;15.88;;;;;;;;;;10024877;28;20062;-68
2023/03/01 17:08:15;;;;;;;16.42;14.25;;;;;;;;;;10025161;28;20081;-68
2023/03/01 17:13:10;;;;;;;16.35;14.30;;;;;;;;;;10025008;28;20108;-68
2023/03/01 17:18:04;;;;;;;17.05;14.77;;;;;;;;;;10022761;28;20058;-68
2023/03/01 17:22:58;;;;;;;16.00;14.30;;;;;;;;;;10024538;28;20462;-68
2023/03/01 17:27:50;;;;;;;19.30;17.38;;;;;;;;;;10024743;28;20568;-69
2023/03/01 17:32:43;;;;;;;18.33;16.05;;;;;;;;;;10023052;28;20046;-68
2023/03/01 17:37:38;;;;;;;21.42;19.23;;;;;;;;;;10010467;28;20054;-68
2023/03/01 17:42:32;;;;;;;21.40;19.10;;;;;;;;;;10023794;28;20470;-65
2023/03/01 17:47:26;;;;;;;24.70;19.83;;;;;;;;;;10023214;28;20053;-66
2023/03/01 17:52:22;;;;;;;20.67;18.63;;;;;;;;;;10023736;28;20068;-66
2023/03/01 17:57:15;;;;;;;17.88;15.63;;;;;;;;;;10015430;28;20443;-67
2023/03/01 18:02:11;;;;;;;16.00;14.30;;;;;;;;;;10023080;28;20054;-66
2023/03/01 18:07:07;;;;;;;16.77;15.05;;;;;;;;;;10023738;28;20089;-67
2023/03/01 18:12:00;;;;;;;16.25;14.63;;;;;;;;;;10022907;28;20080;-66
2023/03/01 18:16:54;;;;;;;15.18;13.45;;;;;;;;;;10023173;28;20124;-67
2023/03/01 18:21:48;;;;;;;16.95;15.00;;;;;;;;;;10022797;28;20100;-67
2023/03/01 18:26:42;;;;;;;18.35;16.52;;;;;;;;;;10019682;28;20050;-68
2023/03/01 18:31:35;;;;;;;19.75;17.05;;;;;;;;;;9991256;28;20068;-66
2023/03/01 18:36:33;;;;;;;19.75;17.55;;;;;;;;;;9990840;28;20054;-66
2023/03/01 18:41:27;;;;;;;20.27;16.08;;;;;;;;;;9986811;28;20050;-69
2023/03/01 18:46:20;;;;;;;18.48;16.48;;;;;;;;;;9999935;28;20415;-66
2023/03/01 18:51:17;;;;;;;19.23;16.45;;;;;;;;;;10010696;28;20145;-69
2023/03/01 18:56:11;;;;;;;20.70;16.70;;;;;;;;;;10012652;28;20052;-67
2023/03/01 19:01:10;;;;;;;37.42;22.63;;;;;;;;;;10008460;28;20060;-69
2023/03/01 19:06:04;;;;;;;17.13;15.25;;;;;;;;;;10002697;28;20100;-68
2023/03/01 19:10:58;;;;;;;18.08;16.23;;;;;;;;;;10017475;28;20148;-69
2023/03/01 19:15:52;;;;;;;15.55;13.93;;;;;;;;;;10016485;28;20573;-69
2023/03/01 19:20:44;;;;;;;21.13;17.35;;;;;;;;;;10010527;28;20104;-68
2023/03/01 19:25:41;;;;;;;17.35;14.65;;;;;;;;;;10008889;28;20193;-69
2023/03/01 19:30:34;;;;;;;15.32;13.73;;;;;;;;;;10006630;28;20061;-68
2023/03/01 19:35:28;;;;;;;17.35;15.55;;;;;;;;;;10003996;28;20089;-64
2023/03/01 19:40:21;;;;;;;20.92;16.48;;;;;;;;;;10003000;28;20049;-67
2023/03/01 19:45:15;;;;;;;18.30;16.40;;;;;;;;;;10012605;28;20061;-67
2023/03/01 19:50:16;;;;;;;24.02;19.25;;;;;;;;;;10024333;28;20157;-67
2023/03/01 19:55:11;;;;;;;16.73;15.02;;;;;;;;;;10022458;28;20054;-67
2023/03/01 20:00:05;;;;;;;17.52;15.73;;;;;;;;;;10027227;28;20463;-64
2023/03/01 20:05:03;;;;;;;18.92;17.02;;;;;;;;;;10022805;28;20590;-66
2023/03/01 20:09:56;;;;;;;20.38;16.52;;;;;;;;;;10000640;28;20062;-67
2023/03/01 20:14:54;;;;;;;17.02;15.40;;;;;;;;;;10010648;28;20133;-67
2023/03/01 20:19:47;;;;;;;22.00;19.38;;;;;;;;;;10002803;28;20495;-68
2023/03/01 20:24:41;;;;;;;16.88;15.18;;;;;;;;;;10019389;28;20085;-66
2023/03/01 20:29:35;;;;;;;17.30;15.50;;;;;;;;;;10014443;28;20801;-67
2023/03/01 20:34:29;;;;;;;16.30;14.73;;;;;;;;;;10010396;28;20062;-67
2023/03/01 20:39:22;;;;;;;14.00;12.38;;;;;;;;;;10014838;28;20052;-67
2023/03/01 20:44:16;;;;;;;15.18;12.52;;;;;;;;;;10006908;28;20058;-67
2023/03/01 20:49:10;;;;;;;15.30;13.50;;;;;;;;;;10011887;28;20073;-66
2023/03/01 20:54:04;;;;;;;16.13;14.63;;;;;;;;;;10003941;28;20097;-67
2023/03/01 20:58:57;;;;;;;15.77;14.25;;;;;;;;;;10010690;28;20049;-67
2023/03/01 21:03:51;;;;;;;16.13;14.23;;;;;;;;;;9999595;28;20127;-65
2023/03/01 21:08:44;;;;;;;18.15;16.23;;;;;;;;;;10001907;28;20121;-67
2023/03/01 21:13:37;;;;;;;17.98;15.20;;;;;;;;;;9993580;28;20064;-66
2023/03/01 21:18:31;;;;;;;19.02;17.00;;;;;;;;;;10001717;28;20061;-66
2023/03/01 21:23:25;;;;;;;20.05;17.95;;;;;;;;;;10005227;28;20532;-67
2023/03/01 21:28:18;;;;;;;21.65;19.15;;;;;;;;;;10012056;28;20053;-72
2023/03/01 21:33:12;;;;;;;20.58;18.42;;;;;;;;;;10004501;28;20137;-72
2023/03/01 21:38:06;;;;;;;25.15;19.13;;;;;;;;;;10006324;28;20105;-72
2023/03/01 21:43:01;;;;;;;19.95;17.85;;;;;;;;;;10003381;28;20096;-71
2023/03/01 21:47:55;;;;;;;22.42;19.98;;;;;;;;;;9996020;28;20073;-72
2023/03/01 21:52:48;;;;;;;24.38;20.63;;;;;;;;;;10001134;28;20507;-73
2023/03/01 21:57:43;;;;;;;24.33;21.80;;;;;;;;;;10011867;28;20057;-73
2023/03/01 22:02:36;;;;;;;24.17;20.52;;;;;;;;;;10016538;28;20047;-74
2023/03/01 22:07:29;;;;;;;24.13;21.15;;;;;;;;;;10014923;28;20061;-72
2023/03/01 22:12:23;;;;;;;21.55;19.13;;;;;;;;;;10005926;28;20046;-74
2023/03/01 22:17:15;;;;;;;24.98;22.27;;;;;;;;;;10013960;28;20054;-75
2023/03/01 22:22:08;;;;;;;26.88;21.00;;;;;;;;;;10009327;28;20132;-75
2023/03/01 22:27:03;;;;;;;24.52;21.40;;;;;;;;;;10006389;28;20610;-75
2023/03/01 22:31:56;;;;;;;25.50;19.10;;;;;;;;;;10003162;28;20140;-75
2023/03/01 22:36:49;;;;;;;26.73;22.10;;;;;;;;;;10013337;28;20050;-75
2023/03/01 22:41:45;;;;;;;28.10;23.48;;;;;;;;;;10012383;28;20069;-72
2023/03/01 22:46:38;;;;;;;26.48;23.63;;;;;;;;;;10019744;28;20414;-73
2023/03/01 22:51:34;;;;;;;23.55;21.05;;;;;;;;;;10018764;28;20065;-73
2023/03/01 22:56:29;;;;;;;24.95;21.50;;;;;;;;;;10015818;28;20096;-73
2023/03/01 23:01:24;;;;;;;27.67;24.70;;;;;;;;;;10019415;28;20046;-73
2023/03/01 23:06:17;;;;;;;26.95;22.98;;;;;;;;;;10021636;28;20080;-72
2023/03/01 23:11:14;;;;;;;27.02;23.60;;;;;;;;;;10015245;28;20062;-73
2023/03/01 23:16:09;;;;;;;27.08;23.65;;;;;;;;;;10011517;28;20058;-73
2023/03/01 23:21:09;;;;;;;25.33;22.60;;;;;;;;;;10012218;28;20136;-73
2023/03/01 23:26:03;;;;;;;24.83;22.15;;;;;;;;;;10003323;28;20491;-72
2023/03/01 23:30:59;;;;;;;26.75;23.30;;;;;;;;;;10011492;28;20050;-73
2023/03/01 23:35:53;;;;;;;26.52;23.67;;;;;;;;;;10011510;28;20085;-73
2023/03/01 23:40:48;;;;;;;26.80;22.13;;;;;;;;;;10010707;28;20057;-72
2023/03/01 23:45:42;;;;;;;26.65;23.63;;;;;;;;;;10010491;28;20145;-72
2023/03/01 23:50:40;;;;;;;28.98;24.38;;;;;;;;;;10016050;28;20499;-72
2023/03/01 23:55:33;;;;;;;31.13;23.20;;;;;;;;;;10015650;28;20124;-72
